Time;durP1;ratioP1;P1;durP2;ratioP2;P2;SDS_P1;SDS_P2;PMS_P1;PMS_P2;Temp;Humidity;BMP_temperature;BMP_pressure;BME280_temperature;BME280_humidity;BME280_pressure;Samples;Min_cycle;Max_cycle;Signal;HPM_P1;HPM_P2
2024/02/19 00:00:54;;;;;;;0.40;0.30;;;8.80;71.60;;;;;;5072325;28;20024;-81
2024/02/19 00:03:21;;;;;;;0.40;0.30;;;8.80;71.80;;;;;;5089216;28;20040;-80
2024/02/19 00:05:47;;;;;;;0.40;0.35;;;8.80;71.80;;;;;;5087185;28;20406;-80
2024/02/19 00:08:13;;;;;;;0.85;0.40;;;8.80;71.70;;;;;;5087234;28;20060;-81
2024/02/19 00:10:39;;;;;;;0.30;0.30;;;8.80;71.50;;;;;;5087339;28;20036;-80
2024/02/19 00:13:05;;;;;;;0.40;0.25;;;8.80;71.60;;;;;;5070775;28;20359;-81
2024/02/19 00:15:31;;;;;;;0.77;0.47;;;8.80;71.50;;;;;;5062509;28;20040;-80
2024/02/19 00:17:59;;;;;;;0.20;0.20;;;8.80;71.50;;;;;;5071487;28;20209;-81
2024/02/19 00:20:25;;;;;;;0.40;0.38;;;8.80;71.40;;;;;;5053149;28;20642;-81
2024/02/19 00:22:51;;;;;;;0.52;0.38;;;8.80;71.30;;;;;;5087362;28;20115;-81
2024/02/19 00:25:18;;;;;;;0.35;0.20;;;8.80;71.30;;;;;;5070995;28;20028;-82
2024/02/19 00:27:44;;;;;;;0.25;0.25;;;8.80;71.50;;;;;;5056156;28;20123;-82
2024/02/19 00:30:10;;;;;;;1.77;0.50;;;8.80;71.70;;;;;;5070212;28;20517;-82
2024/02/19 00:32:36;;;;;;;0.52;0.32;;;8.80;71.40;;;;;;5072895;28;20487;-81
2024/02/19 00:35:04;;;;;;;0.88;0.52;;;8.80;71.70;;;;;;5086371;28;20028;-83
2024/02/19 00:37:30;;;;;;;0.75;0.52;;;8.80;71.40;;;;;;5070055;28;20039;-82
2024/02/19 00:39:57;;;;;;;0.75;0.40;;;8.80;71.40;;;;;;5070862;28;20043;-81
2024/02/19 00:42:24;;;;;;;0.30;0.20;;;8.80;71.40;;;;;;5054480;28;20032;-82
2024/02/19 00:44:51;;;;;;;0.55;0.50;;;8.80;71.70;;;;;;5069991;28;20029;-82
2024/02/19 00:47:17;;;;;;;0.30;0.30;;;8.80;71.40;;;;;;5070348;28;20039;-83
2024/02/19 00:49:43;;;;;;;0.40;0.40;;;8.80;71.60;;;;;;5053597;28;20123;-83
2024/02/19 00:52:09;;;;;;;0.57;0.30;;;8.80;71.40;;;;;;5086569;28;20040;-82
2024/02/19 00:54:35;;;;;;;0.28;0.28;;;8.80;71.30;;;;;;5070286;28;20131;-83
2024/02/19 00:57:01;;;;;;;0.75;0.55;;;8.80;71.20;;;;;;5054367;28;20032;-85
2024/02/19 00:59:27;;;;;;;1.33;0.52;;;8.70;71.20;;;;;;5076372;28;20032;-84
2024/02/19 01:01:53;;;;;;;1.02;0.50;;;8.80;71.50;;;;;;5083268;28;20032;-83
2024/02/19 01:04:19;;;;;;;0.70;0.47;;;8.70;71.40;;;;;;5058336;28;20371;-82
2024/02/19 01:06:45;;;;;;;2.50;0.40;;;8.80;71.80;;;;;;5076414;28;20028;-82
2024/02/19 01:09:11;;;;;;;1.25;0.40;;;8.80;71.60;;;;;;5091165;28;20081;-83
2024/02/19 01:11:37;;;;;;;0.32;0.20;;;8.80;71.60;;;;;;5091893;28;20095;-81
2024/02/19 01:14:03;;;;;;;0.68;0.30;;;8.80;71.60;;;;;;5075480;28;20444;-83
2024/02/19 01:16:29;;;;;;;7.10;0.40;;;8.70;71.80;;;;;;5072049;28;20032;-82
2024/02/19 01:18:56;;;;;;;0.25;0.20;;;8.80;71.40;;;;;;5076001;28;20043;-85
2024/02/19 01:21:22;;;;;;;0.30;0.30;;;8.70;71.70;;;;;;5073863;28;20108;-85
2024/02/19 01:23:48;;;;;;;0.25;0.20;;;8.80;71.50;;;;;;5059407;28;20521;-83
2024/02/19 01:26:20;;;;;;;0.30;0.30;;;8.80;71.60;;;;;;5059365;28;20164;-84
2024/02/19 01:28:47;;;;;;;0.75;0.40;;;8.80;71.10;;;;;;5051660;28;20097;-82
2024/02/19 01:31:14;;;;;;;0.20;0.20;;;8.70;71.00;;;;;;5059811;28;20024;-81
2024/02/19 01:33:40;;;;;;;0.40;0.30;;;8.80;71.20;;;;;;5089479;28;21142;-79
2024/02/19 01:36:07;;;;;;;1.17;0.20;;;8.70;71.20;;;;;;5074112;28;20085;-81
2024/02/19 01:38:33;;;;;;;0.30;0.20;;;8.80;71.10;;;;;;5056196;28;20040;-79
2024/02/19 01:40:59;;;;;;;0.30;0.30;;;8.80;70.90;;;;;;5090018;28;20043;-79
2024/02/19 01:43:25;;;;;;;0.50;0.40;;;8.80;70.40;;;;;;5073610;28;20024;-79
2024/02/19 01:45:51;;;;;;;0.68;0.22;;;8.80;70.80;;;;;;5089504;28;20024;-79
2024/02/19 01:48:17;;;;;;;1.98;0.30;;;8.80;71.20;;;;;;5089597;28;20035;-79
2024/02/19 01:50:45;;;;;;;0.20;0.20;;;8.80;71.10;;;;;;5073481;28;20533;-79
2024/02/19 01:53:12;;;;;;;0.32;0.28;;;8.70;71.00;;;;;;5057061;28;20055;-79
2024/02/19 01:55:40;;;;;;;0.90;0.25;;;8.80;70.90;;;;;;5055111;28;20043;-79
2024/02/19 01:58:07;;;;;;;0.40;0.20;;;8.70;70.80;;;;;;5089715;28;20046;-80
2024/02/19 02:00:40;;;;;;;0.73;0.22;;;8.80;70.50;;;;;;5056983;28;20040;-80
2024/02/19 02:03:09;;;;;;;0.75;0.30;;;8.80;70.20;;;;;;5088709;28;20036;-81
2024/02/19 02:05:36;;;;;;;0.35;0.30;;;8.70;70.60;;;;;;5088641;28;20035;-81
2024/02/19 02:08:05;;;;;;;0.25;0.20;;;8.70;70.50;;;;;;5074608;28;20392;-84
2024/02/19 02:10:31;;;;;;;0.50;0.30;;;8.70;70.30;;;;;;5068404;28;20040;-84
2024/02/19 02:12:57;;;;;;;1.13;0.30;;;8.70;70.10;;;;;;5075261;28;20891;-81
2024/02/19 02:15:24;;;;;;;2.05;0.40;;;8.80;70.00;;;;;;5072536;28;20086;-81
2024/02/19 02:17:50;;;;;;;0.70;0.20;;;8.70;69.80;;;;;;5071875;28;20542;-81
2024/02/19 02:20:16;;;;;;;0.28;0.15;;;8.70;70.00;;;;;;5089010;28;20513;-80
2024/02/19 02:22:43;;;;;;;1.23;0.28;;;8.70;70.20;;;;;;5088576;28;20040;-79
2024/02/19 02:25:09;;;;;;;0.52;0.40;;;8.70;69.50;;;;;;5055599;28;20032;-79
2024/02/19 02:27:35;;;;;;;0.52;0.30;;;8.70;69.60;;;;;;5056324;28;20039;-80
2024/02/19 02:30:03;;;;;;;0.85;0.20;;;8.70;69.70;;;;;;5073004;28;20036;-82
2024/02/19 02:32:30;;;;;;;0.50;0.30;;;8.70;69.40;;;;;;5074525;28;20046;-82
2024/02/19 02:34:56;;;;;;;0.25;0.25;;;8.70;69.50;;;;;;5055315;28;20032;-82
2024/02/19 02:37:22;;;;;;;0.30;0.20;;;8.70;69.80;;;;;;5074202;28;20031;-83
2024/02/19 02:39:48;;;;;;;0.20;0.20;;;8.70;69.90;;;;;;5075431;28;20081;-86
2024/02/19 02:42:14;;;;;;;0.20;0.20;;;8.70;69.50;;;;;;5057623;28;20410;-85
2024/02/19 02:44:40;;;;;;;1.38;0.30;;;8.70;69.60;;;;;;5055108;28;20070;-79
2024/02/19 02:47:06;;;;;;;0.75;0.20;;;8.70;69.70;;;;;;5074344;28;20386;-79
2024/02/19 02:49:32;;;;;;;1.15;0.20;;;8.70;69.60;;;;;;5089019;28;20036;-78
2024/02/19 02:51:58;;;;;;;0.13;0.13;;;8.70;69.80;;;;;;5088646;28;20023;-78
2024/02/19 02:54:24;;;;;;;0.90;0.20;;;8.70;69.40;;;;;;5088010;28;20036;-80
2024/02/19 02:56:50;;;;;;;0.98;0.20;;;8.60;69.30;;;;;;5072690;28;20032;-81
2024/02/19 02:59:16;;;;;;;0.30;0.20;;;8.70;69.20;;;;;;5089107;28;20032;-78
2024/02/19 03:01:42;;;;;;;1.00;0.20;;;8.70;69.00;;;;;;5088701;28;20185;-79
2024/02/19 03:04:08;;;;;;;0.20;0.20;;;8.70;69.20;;;;;;5071898;28;20819;-79
2024/02/19 03:06:34;;;;;;;0.52;0.40;;;8.70;69.00;;;;;;5086642;28;20036;-80
2024/02/19 03:09:00;;;;;;;0.82;0.20;;;8.70;69.00;;;;;;5084546;28;20064;-79
2024/02/19 03:11:26;;;;;;;0.30;0.20;;;8.60;69.10;;;;;;5073844;28;20510;-79
2024/02/19 03:13:52;;;;;;;1.10;0.43;;;8.70;69.00;;;;;;5087833;28;20032;-80
2024/02/19 03:16:18;;;;;;;0.47;0.20;;;8.70;69.20;;;;;;5070741;28;20459;-81
2024/02/19 03:18:45;;;;;;;0.60;0.20;;;8.70;68.90;;;;;;5086635;28;20498;-80
2024/02/19 03:21:15;;;;;;;0.45;0.25;;;8.70;69.20;;;;;;5069528;28;20036;-80
2024/02/19 03:23:53;;;;;;;0.63;0.25;;;8.60;69.30;;;;;;5086472;28;20024;-80
2024/02/19 03:26:27;;;;;;;0.65;0.17;;;8.70;68.50;;;;;;5064432;28;20038;-82
2024/02/19 03:28:53;;;;;;;0.75;0.20;;;8.70;69.20;;;;;;5086881;28;20032;-79
2024/02/19 03:31:19;;;;;;;1.02;0.45;;;8.60;68.50;;;;;;5072992;28;20028;-80
2024/02/19 03:33:46;;;;;;;1.42;0.30;;;8.60;68.70;;;;;;5054750;28;20039;-79
2024/02/19 03:36:12;;;;;;;0.20;0.20;;;8.60;68.70;;;;;;5071049;28;20067;-79
2024/02/19 03:38:38;;;;;;;1.58;0.60;;;8.60;68.90;;;;;;5065543;28;20032;-81
2024/02/19 03:41:07;;;;;;;0.82;0.30;;;8.60;68.30;;;;;;5090536;28;20028;-81
2024/02/19 03:43:36;;;;;;;1.25;0.20;;;8.60;68.60;;;;;;5086590;28;20032;-80
2024/02/19 03:46:04;;;;;;;0.38;0.32;;;8.60;68.80;;;;;;5072519;28;20044;-83
2024/02/19 03:48:33;;;;;;;0.65;0.40;;;8.60;68.80;;;;;;5086640;28;20043;-81
2024/02/19 03:50:59;;;;;;;1.08;0.20;;;8.60;68.70;;;;;;5054938;28;20048;-81
2024/02/19 03:53:25;;;;;;;0.40;0.30;;;8.60;68.90;;;;;;5072139;28;20036;-81
2024/02/19 03:55:51;;;;;;;0.32;0.22;;;8.60;68.70;;;;;;5069846;28;20038;-82
2024/02/19 03:58:17;;;;;;;0.68;0.25;;;8.60;68.60;;;;;;5070945;28;20024;-81
2024/02/19 04:00:43;;;;;;;1.23;0.30;;;8.60;68.50;;;;;;5086504;28;20718;-80
2024/02/19 04:03:09;;;;;;;1.95;0.32;;;8.60;68.80;;;;;;5069217;28;20040;-78
2024/02/19 04:05:35;;;;;;;0.15;0.10;;;8.60;68.70;;;;;;5068828;28;20028;-77
2024/02/19 04:08:02;;;;;;;0.73;0.30;;;8.60;68.20;;;;;;5068583;28;20433;-81
2024/02/19 04:10:28;;;;;;;0.40;0.20;;;8.60;68.70;;;;;;5086416;28;20071;-79
2024/02/19 04:12:54;;;;;;;0.73;0.20;;;8.60;68.90;;;;;;5083544;28;20056;-78
2024/02/19 04:15:20;;;;;;;0.90;0.52;;;8.60;68.80;;;;;;5052864;28;20067;-80
2024/02/19 04:17:49;;;;;;;2.53;0.45;;;8.60;68.60;;;;;;5056015;28;20057;-80
2024/02/19 04:20:16;;;;;;;1.52;0.20;;;8.60;69.50;;;;;;5028500;28;20511;-80
2024/02/19 04:22:42;;;;;;;0.30;0.20;;;8.60;68.30;;;;;;5027888;28;20037;-82
2024/02/19 04:25:08;;;;;;;0.38;0.20;;;8.60;68.20;;;;;;5043347;28;20033;-78
2024/02/19 04:27:34;;;;;;;0.35;0.30;;;8.60;68.20;;;;;;5043781;28;20040;-79
2024/02/19 04:30:00;;;;;;;0.30;0.30;;;8.60;68.20;;;;;;5062419;28;20033;-82
2024/02/19 04:32:26;;;;;;;0.90;0.35;;;8.60;68.10;;;;;;5046170;28;20037;-81
2024/02/19 04:34:54;;;;;;;2.70;0.50;;;8.60;68.20;;;;;;5044438;28;20029;-81
2024/02/19 04:37:20;;;;;;;0.20;0.20;;;8.60;68.00;;;;;;5045298;28;20033;-80
2024/02/19 04:39:46;;;;;;;0.93;0.30;;;8.60;68.20;;;;;;5045791;28;20041;-80
2024/02/19 04:42:12;;;;;;;0.65;0.20;;;8.60;67.80;;;;;;5045832;28;20044;-80
2024/02/19 04:44:39;;;;;;;1.38;0.30;;;8.60;67.70;;;;;;5044150;28;20377;-87
2024/02/19 04:47:05;;;;;;;0.60;0.30;;;8.60;68.00;;;;;;5029869;28;20083;-88
2024/02/19 04:49:31;;;;;;;1.70;0.43;;;8.60;67.90;;;;;;5046613;28;20039;-86
2024/02/19 04:51:57;;;;;;;0.75;0.40;;;8.60;67.90;;;;;;5050372;28;20033;-86
2024/02/19 04:54:24;;;;;;;1.55;0.40;;;8.60;68.10;;;;;;5047570;28;20534;-87
2024/02/19 04:56:50;;;;;;;1.17;0.30;;;8.60;67.40;;;;;;5045606;28;20095;-83
2024/02/19 04:59:16;;;;;;;0.98;0.30;;;8.60;67.60;;;;;;5028907;28;20462;-84
2024/02/19 05:01:42;;;;;;;0.55;0.55;;;8.60;68.00;;;;;;5046298;28;20527;-84
2024/02/19 05:04:08;;;;;;;1.38;0.30;;;8.60;67.90;;;;;;5028560;28;20029;-80
2024/02/19 05:09:21;;;;;;;2.65;0.60;;;8.60;67.40;;;;;;5043602;28;20567;-78
2024/02/19 05:11:47;;;;;;;0.90;0.80;;;8.60;67.70;;;;;;5043743;28;20052;-79
2024/02/19 05:14:13;;;;;;;2.00;0.63;;;8.60;67.90;;;;;;5044523;28;20120;-77
2024/02/19 05:16:40;;;;;;;7.63;1.00;;;8.60;68.30;;;;;;5045080;28;20121;-79
2024/02/19 05:19:06;;;;;;;3.58;0.98;;;8.60;68.50;;;;;;5083773;28;20047;-78
2024/02/19 05:21:33;;;;;;;3.72;2.00;;;8.60;68.20;;;;;;5084161;28;20034;-78
2024/02/19 05:24:00;;;;;;;3.10;1.55;;;8.60;68.60;;;;;;5084583;28;20043;-79
2024/02/19 05:26:26;;;;;;;4.82;2.28;;;8.60;68.90;;;;;;5082802;28;20402;-79
2024/02/19 05:28:53;;;;;;;4.05;1.73;;;8.50;69.00;;;;;;5084641;28;20046;-79
2024/02/19 05:31:32;;;;;;;3.53;2.03;;;8.50;69.00;;;;;;5085736;28;20024;-78
2024/02/19 05:33:58;;;;;;;7.30;2.47;;;8.60;69.10;;;;;;5053950;28;20180;-78
2024/02/19 05:36:24;;;;;;;2.72;1.90;;;8.50;68.80;;;;;;5086224;28;20028;-78
2024/02/19 05:38:50;;;;;;;3.38;1.75;;;8.50;69.00;;;;;;5085935;28;20166;-78
2024/02/19 05:41:16;;;;;;;4.72;2.13;;;8.50;69.20;;;;;;5085426;28;20032;-77
2024/02/19 05:43:42;;;;;;;4.28;1.88;;;8.50;68.40;;;;;;5050794;28;20614;-78
2024/02/19 05:46:09;;;;;;;3.00;1.70;;;8.60;68.00;;;;;;5089547;28;20036;-78
2024/02/19 05:48:35;;;;;;;2.00;1.45;;;8.50;67.90;;;;;;5071648;28;20044;-77
2024/02/19 05:51:03;;;;;;;4.57;2.17;;;8.60;67.90;;;;;;5088926;28;20040;-79
2024/02/19 05:53:30;;;;;;;2.67;1.27;;;8.60;67.80;;;;;;5073058;28;20067;-77
2024/02/19 05:55:56;;;;;;;2.83;1.52;;;8.60;68.10;;;;;;5072869;28;20028;-79
2024/02/19 05:58:22;;;;;;;2.33;1.23;;;8.60;68.00;;;;;;5088100;28;20043;-76
2024/02/19 06:00:48;;;;;;;1.88;1.17;;;8.60;68.20;;;;;;5089032;28;20466;-76
2024/02/19 06:03:14;;;;;;;3.08;1.20;;;8.60;68.40;;;;;;5070886;28;20032;-76
2024/02/19 06:05:40;;;;;;;1.75;1.20;;;8.60;68.20;;;;;;5086271;28;20032;-78
2024/02/19 06:08:07;;;;;;;3.47;1.40;;;8.60;68.60;;;;;;5069049;28;20518;-76
2024/02/19 06:10:33;;;;;;;2.75;1.45;;;8.60;68.80;;;;;;5087308;28;20039;-78
2024/02/19 06:12:59;;;;;;;2.35;1.35;;;8.60;68.70;;;;;;5070238;28;20032;-78
2024/02/19 06:15:27;;;;;;;5.28;1.38;;;8.60;69.50;;;;;;5071196;28;20032;-78
2024/02/19 06:18:13;;;;;;;1.92;1.02;;;8.60;69.60;;;;;;5088548;28;21397;-78
2024/02/19 06:20:39;;;;;;;4.07;1.52;;;8.60;69.90;;;;;;5073189;28;20036;-80
2024/02/19 06:23:05;;;;;;;2.58;1.40;;;8.60;70.40;;;;;;5069812;28;20040;-78
2024/02/19 06:25:33;;;;;;;2.53;1.15;;;8.60;71.10;;;;;;5069842;28;20359;-81
2024/02/19 06:27:59;;;;;;;4.22;1.85;;;8.60;71.10;;;;;;5052475;28;20036;-81
2024/02/19 06:30:25;;;;;;;11.55;1.63;;;8.60;71.50;;;;;;5069033;28;20028;-79
2024/02/19 06:32:52;;;;;;;4.00;1.48;;;8.70;71.90;;;;;;5084744;28;20028;-81
2024/02/19 06:35:18;;;;;;;4.07;1.23;;;8.60;72.00;;;;;;5065307;28;20057;-81
2024/02/19 06:37:44;;;;;;;3.10;1.58;;;8.70;72.60;;;;;;5085270;28;20474;-80
2024/02/19 06:40:12;;;;;;;2.63;1.52;;;8.70;73.00;;;;;;5085636;28;20550;-80
2024/02/19 06:42:39;;;;;;;2.47;1.50;;;8.70;73.20;;;;;;5085508;28;20032;-80
2024/02/19 06:45:05;;;;;;;4.25;1.23;;;8.70;73.20;;;;;;5084630;28;20116;-81
2024/02/19 06:47:31;;;;;;;3.03;1.02;;;8.70;73.00;;;;;;5053213;28;20552;-80
2024/02/19 06:49:57;;;;;;;3.15;1.20;;;8.70;73.20;;;;;;5085126;28;20036;-79
2024/02/19 06:52:23;;;;;;;5.40;1.27;;;8.70;72.70;;;;;;5066815;28;20028;-80
2024/02/19 06:54:50;;;;;;;1.10;0.70;;;8.70;72.60;;;;;;5085018;28;20039;-81
2024/02/19 06:57:16;;;;;;;2.17;1.00;;;8.70;72.50;;;;;;5053099;28;20422;-80
2024/02/19 06:59:42;;;;;;;1.55;0.82;;;8.70;72.50;;;;;;5060452;28;20080;-80
2024/02/19 07:02:08;;;;;;;3.35;0.98;;;8.70;72.20;;;;;;5073902;28;20028;-80
2024/02/19 07:04:36;;;;;;;4.18;0.90;;;8.70;72.40;;;;;;5067018;28;20037;-79
2024/02/19 07:07:08;;;;;;;2.42;1.00;;;8.70;72.10;;;;;;5068853;28;20035;-80
2024/02/19 07:09:36;;;;;;;2.15;1.02;;;8.70;72.10;;;;;;5084529;28;20062;-79
2024/02/19 07:12:02;;;;;;;0.90;0.90;;;8.70;71.90;;;;;;5084744;28;20840;-80
2024/02/19 07:14:28;;;;;;;3.15;0.90;;;8.80;72.50;;;;;;5051886;28;20042;-80
2024/02/19 07:16:54;;;;;;;1.23;0.90;;;8.80;71.70;;;;;;5083425;28;20039;-80
2024/02/19 07:19:20;;;;;;;0.95;0.70;;;8.80;71.60;;;;;;5069183;28;20043;-80
2024/02/19 07:21:46;;;;;;;1.63;0.75;;;8.80;71.50;;;;;;5085412;28;20039;-81
2024/02/19 07:24:13;;;;;;;3.00;1.05;;;8.80;71.50;;;;;;5084531;28;20706;-81
2024/02/19 07:26:39;;;;;;;3.00;1.02;;;8.80;71.50;;;;;;5070525;28;20135;-80
2024/02/19 07:29:05;;;;;;;1.88;1.17;;;8.90;71.40;;;;;;5071133;28;20119;-81
2024/02/19 07:31:31;;;;;;;2.70;0.82;;;8.80;71.20;;;;;;5086283;28;20039;-79
2024/02/19 07:33:57;;;;;;;2.67;0.85;;;8.90;71.30;;;;;;5070023;28;20028;-80
2024/02/19 07:36:23;;;;;;;1.63;0.90;;;8.90;71.00;;;;;;5053518;28;20394;-80
2024/02/19 07:38:49;;;;;;;2.22;0.90;;;8.90;71.00;;;;;;5078049;28;20582;-80
2024/02/19 07:41:16;;;;;;;2.55;0.50;;;8.90;71.10;;;;;;5069796;28;20036;-80
2024/02/19 07:43:46;;;;;;;2.17;0.88;;;8.90;71.00;;;;;;5069637;28;20406;-81
2024/02/19 07:46:12;;;;;;;2.47;0.68;;;8.90;71.30;;;;;;5069126;28;20031;-80
2024/02/19 07:48:38;;;;;;;0.95;0.52;;;8.90;71.20;;;;;;5052837;28;20055;-80
2024/02/19 07:51:04;;;;;;;1.27;0.77;;;8.90;71.10;;;;;;5053691;28;20097;-79
2024/02/19 07:53:30;;;;;;;2.60;1.00;;;8.90;71.10;;;;;;5068532;28;20383;-78
2024/02/19 07:56:05;;;;;;;1.15;0.80;;;8.90;70.70;;;;;;5083557;28;20062;-75
2024/02/19 07:58:31;;;;;;;2.15;0.82;;;8.90;70.40;;;;;;5069397;28;20027;-76
2024/02/19 08:00:57;;;;;;;2.40;0.98;;;8.90;70.30;;;;;;5083974;28;20442;-75
2024/02/19 08:03:23;;;;;;;2.28;0.80;;;8.90;70.10;;;;;;5082390;28;20417;-76
2024/02/19 08:05:49;;;;;;;1.38;0.75;;;8.90;70.30;;;;;;5083206;28;20038;-76
2024/02/19 08:08:17;;;;;;;2.72;1.17;;;8.90;70.80;;;;;;5083795;28;20560;-75
2024/02/19 08:11:02;;;;;;;4.03;0.95;;;8.90;71.10;;;;;;5067978;28;20436;-75
2024/02/19 08:13:28;;;;;;;1.70;0.73;;;8.90;71.40;;;;;;5062969;28;20032;-75
2024/02/19 08:15:54;;;;;;;1.40;0.85;;;9.00;71.60;;;;;;5083499;28;20067;-74
2024/02/19 08:18:20;;;;;;;2.45;1.02;;;9.00;71.50;;;;;;5083613;28;20074;-75
2024/02/19 08:23:31;;;;;;;2.72;1.00;;;9.00;71.50;;;;;;5083843;28;20037;-76
2024/02/19 08:25:59;;;;;;;2.83;0.93;;;9.00;71.10;;;;;;5082867;28;20032;-77
2024/02/19 08:28:25;;;;;;;3.65;0.93;;;9.00;70.90;;;;;;5083506;28;20033;-75
2024/02/19 08:30:51;;;;;;;3.25;0.80;;;9.00;70.90;;;;;;5084004;28;20054;-77
2024/02/19 08:33:17;;;;;;;2.15;0.82;;;9.00;71.30;;;;;;5083044;28;20467;-77
2024/02/19 08:35:43;;;;;;;1.40;0.85;;;9.00;71.30;;;;;;5082406;28;20097;-76
2024/02/19 08:38:11;;;;;;;2.42;0.90;;;9.00;71.50;;;;;;5083053;28;20071;-77
2024/02/19 08:40:38;;;;;;;2.33;0.90;;;9.10;71.30;;;;;;5066740;28;20036;-77
2024/02/19 08:43:04;;;;;;;3.13;0.70;;;9.10;71.20;;;;;;5068795;28;20032;-77
2024/02/19 08:45:33;;;;;;;3.60;1.33;;;9.10;71.30;;;;;;5083487;28;20670;-76
2024/02/19 08:47:59;;;;;;;2.67;0.80;;;9.10;71.20;;;;;;5083095;28;20036;-76
2024/02/19 08:50:25;;;;;;;1.05;0.80;;;9.10;71.30;;;;;;5071940;28;20057;-77
2024/02/19 08:52:51;;;;;;;1.23;0.80;;;9.10;71.30;;;;;;5082040;28;20032;-76
2024/02/19 08:55:17;;;;;;;5.53;0.80;;;9.10;71.20;;;;;;5067197;28;20146;-75
2024/02/19 08:57:43;;;;;;;2.33;0.98;;;9.10;71.20;;;;;;5083232;28;20040;-76
2024/02/19 09:00:11;;;;;;;1.88;0.90;;;9.10;70.90;;;;;;5082696;28;20642;-76
2024/02/19 09:02:41;;;;;;;2.20;0.90;;;9.20;70.70;;;;;;5066726;28;20032;-77
2024/02/19 09:05:09;;;;;;;1.35;0.85;;;9.20;70.70;;;;;;5065503;28;20043;-77
2024/02/19 09:07:35;;;;;;;1.25;0.82;;;9.20;70.50;;;;;;5063903;28;20040;-76
2024/02/19 09:10:02;;;;;;;1.67;0.90;;;9.20;70.40;;;;;;5067500;28;20085;-76
2024/02/19 09:12:28;;;;;;;2.03;0.98;;;9.20;69.70;;;;;;5082078;28;20139;-76
2024/02/19 09:14:58;;;;;;;2.28;0.88;;;9.20;69.70;;;;;;5067732;28;20067;-76
2024/02/19 09:17:25;;;;;;;3.63;0.90;;;9.20;69.50;;;;;;5082374;28;20075;-76
2024/02/19 09:19:51;;;;;;;1.10;0.85;;;9.20;69.60;;;;;;5086310;28;20047;-77
2024/02/19 09:22:17;;;;;;;1.20;1.00;;;9.20;69.50;;;;;;5053678;28;20032;-77
2024/02/19 09:24:46;;;;;;;2.38;0.95;;;9.20;69.60;;;;;;5086768;28;20036;-76
2024/02/19 09:27:14;;;;;;;2.47;1.00;;;9.20;69.80;;;;;;5070573;28;20470;-76
2024/02/19 09:29:40;;;;;;;1.65;1.00;;;9.20;69.70;;;;;;5082925;28;20043;-75
2024/02/19 09:32:07;;;;;;;1.05;0.70;;;9.20;69.50;;;;;;5087661;28;20039;-75
2024/02/19 09:34:34;;;;;;;1.73;0.75;;;9.30;69.50;;;;;;5065873;28;20052;-77
2024/02/19 09:37:00;;;;;;;1.25;0.88;;;9.30;69.60;;;;;;5070654;28;20040;-77
2024/02/19 09:39:27;;;;;;;1.38;0.80;;;9.20;68.90;;;;;;5057149;28;20383;-76
2024/02/19 09:41:54;;;;;;;1.40;0.63;;;9.30;69.00;;;;;;5087315;28;20428;-77
2024/02/19 09:44:20;;;;;;;1.70;0.88;;;9.30;68.60;;;;;;5054059;28;20032;-77
2024/02/19 09:46:48;;;;;;;1.27;0.75;;;9.30;68.20;;;;;;5085911;28;20036;-76
2024/02/19 09:49:33;;;;;;;1.40;0.88;;;9.30;67.70;;;;;;5082693;28;20036;-76
2024/02/19 09:52:02;;;;;;;1.08;0.77;;;9.30;67.50;;;;;;5071089;28;20040;-76
2024/02/19 09:54:29;;;;;;;1.80;0.70;;;9.30;67.50;;;;;;5064068;28;20188;-77
2024/02/19 09:57:14;;;;;;;1.27;0.80;;;9.30;68.10;;;;;;5054284;28;20040;-76
2024/02/19 09:59:44;;;;;;;1.40;0.75;;;9.30;68.40;;;;;;5067408;28;20032;-77
2024/02/19 10:02:12;;;;;;;0.75;0.73;;;9.40;68.40;;;;;;5085742;28;20048;-77
2024/02/19 10:04:39;;;;;;;1.63;0.95;;;9.40;68.40;;;;;;5083963;28;20036;-76
2024/02/19 10:07:05;;;;;;;1.50;0.80;;;9.40;68.80;;;;;;5054193;28;20043;-77
2024/02/19 10:09:31;;;;;;;2.30;0.90;;;9.40;68.30;;;;;;5086444;28;20526;-77
2024/02/19 10:11:58;;;;;;;1.63;0.80;;;9.50;68.30;;;;;;5085504;28;20522;-76
2024/02/19 10:14:25;;;;;;;0.70;0.70;;;9.40;68.10;;;;;;5066739;28;20819;-77
2024/02/19 10:16:51;;;;;;;1.05;0.80;;;9.50;68.30;;;;;;5085664;28;20047;-76
2024/02/19 10:19:18;;;;;;;1.25;0.90;;;9.50;68.00;;;;;;5070897;28;20036;-76
2024/02/19 10:21:48;;;;;;;2.10;0.80;;;9.50;67.80;;;;;;5065996;28;20122;-76
2024/02/19 10:24:17;;;;;;;1.85;0.75;;;9.50;67.50;;;;;;5050174;28;20123;-77
2024/02/19 10:26:49;;;;;;;1.08;0.57;;;9.50;67.30;;;;;;5070067;28;20672;-77
2024/02/19 10:29:17;;;;;;;1.15;0.70;;;9.50;67.00;;;;;;5084528;28;20062;-77
2024/02/19 10:31:46;;;;;;;1.33;0.80;;;9.50;67.00;;;;;;5049397;28;20422;-77
2024/02/19 10:34:14;;;;;;;0.88;0.70;;;9.50;66.70;;;;;;5052703;28;20039;-77
2024/02/19 10:36:49;;;;;;;0.88;0.70;;;9.50;66.70;;;;;;5053778;28;20063;-76
2024/02/19 10:39:16;;;;;;;1.10;0.55;;;9.50;66.50;;;;;;5066859;28;20036;-78
2024/02/19 10:41:42;;;;;;;1.75;0.70;;;9.60;66.50;;;;;;5082181;28;20119;-77
2024/02/19 10:44:08;;;;;;;0.75;0.75;;;9.60;66.20;;;;;;5084072;28;20028;-78
2024/02/19 10:46:35;;;;;;;1.15;0.98;;;9.60;66.90;;;;;;5069281;28;21762;-77
2024/02/19 10:49:01;;;;;;;2.45;0.77;;;9.60;66.90;;;;;;5071356;28;20036;-77
2024/02/19 10:51:29;;;;;;;1.35;0.80;;;9.60;66.60;;;;;;5067196;28;20055;-77
2024/02/19 10:54:03;;;;;;;2.70;0.82;;;9.60;66.70;;;;;;5069284;28;20701;-75
2024/02/19 10:56:43;;;;;;;1.08;0.70;;;9.60;66.40;;;;;;5052327;28;20406;-77
2024/02/19 10:59:10;;;;;;;1.38;0.80;;;9.60;66.00;;;;;;5064225;28;20032;-76
2024/02/19 11:01:49;;;;;;;0.85;0.70;;;9.60;65.70;;;;;;5086825;28;20181;-78
2024/02/19 11:04:15;;;;;;;1.83;0.90;;;9.70;65.60;;;;;;5062769;28;20031;-77
2024/02/19 11:06:55;;;;;;;1.70;0.80;;;9.70;65.50;;;;;;5052729;28;20075;-76
2024/02/19 11:09:22;;;;;;;1.10;0.68;;;9.70;65.40;;;;;;5049151;28;20656;-77
2024/02/19 11:12:00;;;;;;;1.40;0.98;;;9.70;65.20;;;;;;5068797;28;20031;-77
2024/02/19 11:14:35;;;;;;;0.85;0.77;;;9.70;65.10;;;;;;5069104;28;20078;-78
2024/02/19 11:17:02;;;;;;;;;;;9.70;65.00;;;;;;5068283;28;20044;-77
2024/02/19 11:19:29;;;;;;;1.38;0.90;;;9.70;65.70;;;;;;5052168;28;20756;-77
2024/02/19 11:22:11;;;;;;;2.03;1.08;;;9.70;66.20;;;;;;5068627;28;20103;-75
2024/02/19 11:24:40;;;;;;;0.93;0.70;;;9.70;66.30;;;;;;5061938;28;20113;-76
2024/02/19 11:27:07;;;;;;;1.83;0.90;;;9.80;66.30;;;;;;5069076;28;20237;-77
2024/02/19 11:29:34;;;;;;;1.23;0.82;;;9.80;66.40;;;;;;5065139;28;20127;-77
2024/02/19 11:32:02;;;;;;;1.65;1.00;;;9.80;66.10;;;;;;5052012;28;20039;-78
2024/02/19 11:34:29;;;;;;;0.80;0.80;;;9.80;66.20;;;;;;5052326;28;20027;-77
2024/02/19 11:37:06;;;;;;;1.77;1.10;;;9.80;66.30;;;;;;5054764;28;20032;-76
2024/02/19 11:39:33;;;;;;;1.40;0.90;;;9.80;65.90;;;;;;5069729;28;20032;-77
2024/02/19 11:42:03;;;;;;;1.48;1.27;;;9.80;65.70;;;;;;5037012;28;20036;-78
2024/02/19 11:44:30;;;;;;;1.20;1.10;;;9.80;65.50;;;;;;5062316;28;20032;-78
2024/02/19 11:46:57;;;;;;;1.52;1.40;;;9.80;65.30;;;;;;5070202;28;20674;-78
2024/02/19 11:49:25;;;;;;;1.80;1.10;;;9.80;65.30;;;;;;5065009;28;20119;-76
2024/02/19 11:52:03;;;;;;;2.42;1.02;;;9.80;65.10;;;;;;5055514;28;20095;-77
2024/02/19 11:54:30;;;;;;;2.03;1.30;;;9.80;65.00;;;;;;5084824;28;20069;-78
2024/02/19 11:57:02;;;;;;;2.22;1.20;;;9.80;64.80;;;;;;5050345;28;20035;-76
2024/02/19 11:59:31;;;;;;;1.77;1.27;;;9.80;64.70;;;;;;5053160;28;20423;-75
2024/02/19 12:01:57;;;;;;;1.65;1.10;;;9.80;64.60;;;;;;5070484;28;20372;-77
2024/02/19 12:04:24;;;;;;;2.15;1.30;;;9.80;64.60;;;;;;5060908;28;20032;-76
2024/02/19 12:06:50;;;;;;;2.08;1.60;;;9.80;64.60;;;;;;5086942;28;20032;-77
2024/02/19 12:09:17;;;;;;;1.98;1.27;;;9.80;64.60;;;;;;5069583;28;20105;-76
2024/02/19 12:11:46;;;;;;;1.10;0.98;;;9.80;65.00;;;;;;5087195;28;20040;-79
2024/02/19 12:14:17;;;;;;;1.60;1.25;;;9.80;64.80;;;;;;5043863;28;20051;-79
2024/02/19 12:16:46;;;;;;;3.60;1.45;;;9.80;64.50;;;;;;5087674;28;20505;-81
2024/02/19 12:19:13;;;;;;;2.58;1.33;;;9.80;64.50;;;;;;5099161;28;20139;-79
2024/02/19 12:21:42;;;;;;;1.45;1.15;;;9.80;64.40;;;;;;5050869;28;20105;-77
2024/02/19 12:24:10;;;;;;;1.48;1.23;;;9.80;65.00;;;;;;5066735;28;20085;-78
2024/02/19 12:26:40;;;;;;;3.25;1.30;;;9.80;64.30;;;;;;5067464;28;20161;-79
2024/02/19 12:29:06;;;;;;;1.80;1.30;;;9.80;64.60;;;;;;5048971;28;20395;-78
2024/02/19 12:34:17;;;;;;;2.47;1.50;;;9.80;64.80;;;;;;5065904;28;20069;-79
2024/02/19 12:36:43;;;;;;;2.30;1.23;;;9.80;64.40;;;;;;5048828;28;20043;-79
2024/02/19 12:39:10;;;;;;;1.65;1.15;;;9.90;65.00;;;;;;5059061;28;20028;-79
2024/02/19 12:41:36;;;;;;;2.28;1.30;;;9.80;65.10;;;;;;5082443;28;20585;-80
2024/02/19 12:44:03;;;;;;;2.15;1.67;;;9.80;65.40;;;;;;5082422;28;20032;-77
2024/02/19 12:46:29;;;;;;;4.20;1.70;;;9.90;65.60;;;;;;5065997;28;20137;-78
2024/02/19 12:48:57;;;;;;;2.30;1.40;;;9.90;65.70;;;;;;5083687;28;20027;-79
2024/02/19 12:51:31;;;;;;;2.35;1.60;;;9.90;66.00;;;;;;5066883;28;20466;-80
2024/02/19 12:53:58;;;;;;;5.55;1.90;;;9.90;65.90;;;;;;5084189;28;20578;-79
2024/02/19 12:56:24;;;;;;;2.08;1.40;;;9.90;65.90;;;;;;5087500;28;20032;-82
2024/02/19 12:58:50;;;;;;;2.30;1.42;;;9.90;66.10;;;;;;5051798;28;20515;-79
2024/02/19 13:01:16;;;;;;;2.60;1.50;;;9.90;66.00;;;;;;5086867;28;20497;-79
2024/02/19 13:03:43;;;;;;;1.80;1.50;;;9.90;65.70;;;;;;5086921;28;20090;-79
2024/02/19 13:06:14;;;;;;;3.25;1.60;;;9.90;66.00;;;;;;5086504;28;20059;-80